Time;durP1;ratioP1;P1;durP2;ratioP2;P2;SDS_P1;SDS_P2;PMS_P1;PMS_P2;Temp;Humidity;BMP_temperature;BMP_pressure;BME280_temperature;BME280_humidity;BME280_pressure;Samples;Min_cycle;Max_cycle;Signal;HPM_P1;HPM_P2
2022/02/09 00:04:41;;;;;;;2.03;1.00;;;9.10;99.90;;;;;;4985824;28;20491;-67
2022/02/09 00:07:11;;;;;;;2.63;1.25;;;9.10;99.90;;;;;;4990550;28;20054;-67
2022/02/09 00:09:39;;;;;;;3.45;1.38;;;9.10;99.90;;;;;;4985324;28;20413;-67
2022/02/09 00:12:09;;;;;;;3.83;1.48;;;9.00;99.90;;;;;;4988506;28;20478;-67
2022/02/09 00:30:13;;;;;;;3.88;1.40;;;9.10;99.90;;;;;;4974354;28;20038;-67
2022/02/09 00:59:36;;;;;;;4.30;1.88;;;9.10;99.90;;;;;;4986209;28;20045;-67
2022/02/09 01:56:20;;;;;;;2.63;1.02;;;9.10;99.90;;;;;;4984742;28;20038;-67
2022/02/09 01:58:46;;;;;;;2.08;0.90;;;9.10;99.90;;;;;;4985423;28;20046;-67
2022/02/09 02:01:12;;;;;;;1.33;0.77;;;9.10;99.90;;;;;;4986015;28;20031;-67
2022/02/09 02:03:38;;;;;;;2.78;1.35;;;9.10;99.90;;;;;;4987905;28;20040;-67
2022/02/09 02:06:04;;;;;;;2.65;1.10;;;9.10;99.90;;;;;;4984855;28;20081;-67
2022/02/09 02:08:31;;;;;;;1.95;0.95;;;9.00;99.90;;;;;;4986382;28;20402;-67
2022/02/09 02:11:06;;;;;;;3.85;1.50;;;8.90;99.90;;;;;;4984667;28;20042;-67
2022/02/09 02:18:41;;;;;;;1.85;0.80;;;8.80;99.90;;;;;;4986233;28;19914;-66
2022/02/09 02:21:27;;;;;;;1.85;0.98;;;8.70;99.90;;;;;;4982345;28;20081;-66
2022/02/09 02:34:30;;;;;;;3.45;1.40;;;8.70;99.90;;;;;;4986314;28;20438;-67
2022/02/09 02:39:59;;;;;;;1.85;1.13;;;8.70;99.90;;;;;;4984446;28;20049;-67
2022/02/09 03:09:03;;;;;;;3.70;1.60;;;8.90;99.90;;;;;;4988558;28;20105;-67
2022/02/09 03:14:15;;;;;;;2.70;1.30;;;8.90;99.90;;;;;;4984914;28;20173;-67
2022/02/09 03:16:48;;;;;;;4.10;1.60;;;8.90;99.90;;;;;;4985691;28;20030;-67
2022/02/09 03:54:29;;;;;;;6.47;1.33;;;8.80;99.90;;;;;;4987211;28;20026;-67
2022/02/09 03:59:20;;;;;;;3.83;1.42;;;8.80;99.90;;;;;;4983205;28;20451;-67
2022/02/09 04:01:46;;;;;;;4.85;1.85;;;8.90;99.90;;;;;;4987654;28;20030;-67
2022/02/09 04:04:12;;;;;;;2.67;1.02;;;8.80;99.90;;;;;;4984776;28;20038;-67
2022/02/09 04:06:39;;;;;;;3.90;1.38;;;8.90;99.90;;;;;;4986145;28;20129;-67
2022/02/09 04:09:09;;;;;;;2.83;1.17;;;8.90;99.90;;;;;;4983414;28;20027;-67
2022/02/09 04:19:27;;;;;;;1.10;0.80;;;9.00;99.90;;;;;;4983564;28;20088;-68
2022/02/09 04:46:21;;;;;;;2.05;1.17;;;8.90;99.90;;;;;;4985070;28;20454;-67
2022/02/09 04:54:45;;;;;;;2.60;1.38;;;8.80;99.90;;;;;;4981417;28;20034;-67
2022/02/09 04:57:48;;;;;;;3.05;1.25;;;8.80;99.90;;;;;;4982392;28;20043;-67
2022/02/09 05:26:39;;;;;;;4.65;1.92;;;8.40;99.90;;;;;;4991037;28;20077;-66
2022/02/09 05:29:05;;;;;;;0.68;0.68;;;8.40;99.90;;;;;;4985417;28;20032;-66
2022/02/09 05:31:31;;;;;;;3.75;1.48;;;8.30;99.90;;;;;;5003634;28;20113;-67
2022/02/09 05:33:56;;;;;;;4.50;1.75;;;8.30;99.90;;;;;;4999936;28;20054;-65
2022/02/09 05:36:22;;;;;;;2.92;1.00;;;8.30;99.90;;;;;;4994218;28;20038;-66
2022/02/09 05:38:48;;;;;;;4.07;1.55;;;8.40;99.90;;;;;;4985647;28;20121;-67
2022/02/09 05:41:13;;;;;;;2.05;1.27;;;8.30;99.90;;;;;;4983995;28;20062;-67
2022/02/09 05:43:39;;;;;;;4.47;1.65;;;8.40;99.90;;;;;;4987382;28;20494;-67
2022/02/09 05:54:25;;;;;;;4.25;1.10;;;8.40;99.90;;;;;;4982628;28;20030;-67
2022/02/09 05:56:49;;;;;;;5.35;1.65;;;8.50;99.90;;;;;;4990634;28;20038;-67
2022/02/09 06:01:46;;;;;;;5.05;1.60;;;8.50;99.90;;;;;;4990054;28;20049;-67
2022/02/09 06:04:12;;;;;;;1.27;0.85;;;8.50;99.90;;;;;;4993249;28;20105;-67
2022/02/09 06:06:37;;;;;;;4.53;1.75;;;8.60;99.90;;;;;;4990480;28;20038;-67
2022/02/09 06:09:03;;;;;;;2.75;0.98;;;8.50;99.90;;;;;;4982737;28;20042;-67
2022/02/09 06:11:37;;;;;;;5.43;1.73;;;8.60;99.90;;;;;;4983635;28;20018;-66
2022/02/09 06:22:04;;;;;;;4.85;1.77;;;8.70;99.90;;;;;;4993773;28;20030;-66
2022/02/09 06:24:31;;;;;;;5.13;2.30;;;8.60;99.90;;;;;;4998007;28;20511;-67
2022/02/09 06:26:57;;;;;;;5.40;1.83;;;8.60;99.90;;;;;;4976177;28;20464;-67
2022/02/09 06:29:23;;;;;;;3.50;1.63;;;8.60;99.90;;;;;;4992836;28;20097;-66
2022/02/09 06:31:50;;;;;;;2.78;1.38;;;8.60;99.90;;;;;;4991296;28;20018;-67
2022/02/09 06:34:18;;;;;;;4.28;1.77;;;8.50;99.90;;;;;;4994178;28;20022;-66
2022/02/09 06:36:50;;;;;;;4.38;1.75;;;8.60;99.90;;;;;;4986799;28;20629;-66
2022/02/09 06:39:17;;;;;;;0.95;0.80;;;8.60;99.90;;;;;;4991599;28;20033;-66
2022/02/09 06:41:43;;;;;;;3.33;1.55;;;8.60;99.90;;;;;;4991351;28;20022;-66
2022/02/09 06:44:09;;;;;;;2.90;1.45;;;8.70;99.90;;;;;;4993920;28;20073;-67
2022/02/09 06:46:37;;;;;;;2.42;1.45;;;8.70;99.90;;;;;;4989944;28;20356;-68
2022/02/09 06:49:06;;;;;;;2.72;1.15;;;8.70;99.90;;;;;;4991051;28;20073;-66
2022/02/09 06:51:38;;;;;;;1.60;1.08;;;8.60;99.90;;;;;;4992899;28;20014;-66
2022/02/09 06:57:10;;;;;;;2.08;1.13;;;8.70;99.90;;;;;;4989156;28;20039;-67
2022/02/09 06:59:41;;;;;;;2.70;1.27;;;8.70;99.90;;;;;;4994468;28;20025;-67
2022/02/09 07:02:07;;;;;;;;;;;8.70;99.90;;;;;;5011054;28;20026;-67
2022/02/09 07:04:37;;;;;;;4.25;1.45;;;8.70;99.90;;;;;;5000555;28;19918;-67
2022/02/09 07:07:04;;;;;;;5.70;1.30;;;8.60;99.90;;;;;;4995921;28;20050;-67
2022/02/09 07:09:31;;;;;;;0.80;0.75;;;8.70;99.90;;;;;;4988790;28;20028;-67
2022/02/09 07:11:57;;;;;;;3.03;1.23;;;8.70;99.90;;;;;;4993278;28;20077;-67
2022/02/09 07:14:26;;;;;;;2.45;1.15;;;8.70;99.90;;;;;;4994817;28;20050;-67
2022/02/09 07:16:53;;;;;;;6.70;2.20;;;8.70;99.90;;;;;;4985078;28;20032;-66
2022/02/09 07:19:18;;;;;;;5.13;1.88;;;8.70;99.90;;;;;;4987032;28;20033;-66
2022/02/09 07:21:45;;;;;;;4.95;2.45;;;8.70;99.90;;;;;;4991169;28;20026;-66
2022/02/09 07:24:14;;;;;;;7.72;2.58;;;8.60;99.90;;;;;;4991797;28;20093;-66
2022/02/09 07:29:06;;;;;;;5.70;2.60;;;8.50;99.90;;;;;;4986523;28;20042;-68
2022/02/09 07:31:31;;;;;;;7.57;3.15;;;8.40;99.90;;;;;;4995161;28;20113;-66
2022/02/09 07:33:59;;;;;;;7.47;2.85;;;8.40;99.90;;;;;;4993705;28;20026;-67
2022/02/09 07:36:27;;;;;;;7.93;2.38;;;8.30;99.90;;;;;;4991545;28;20081;-67
2022/02/09 07:38:53;;;;;;;4.78;2.10;;;8.30;99.90;;;;;;4991089;28;20093;-66
2022/02/09 07:41:18;;;;;;;6.40;3.08;;;8.30;99.90;;;;;;4992810;28;20022;-67
2022/02/09 07:49:12;;;;;;;6.88;2.47;;;8.50;99.90;;;;;;4986968;28;20498;-66
2022/02/09 07:51:55;;;;;;;5.75;2.45;;;8.60;99.90;;;;;;4989828;28;20053;-67
2022/02/09 07:54:23;;;;;;;1.33;1.10;;;8.60;99.90;;;;;;4984843;28;20062;-66
2022/02/09 07:56:49;;;;;;;6.30;2.38;;;8.60;99.90;;;;;;4990912;28;20608;-66
2022/02/09 07:59:16;;;;;;;4.10;1.40;;;8.70;99.90;;;;;;4991179;28;20022;-66
2022/02/09 08:01:43;;;;;;;5.25;2.03;;;8.80;99.90;;;;;;4985624;28;20033;-66
2022/02/09 08:04:09;;;;;;;5.72;2.15;;;8.80;99.90;;;;;;4988485;28;20077;-66
2022/02/09 08:06:36;;;;;;;4.53;1.65;;;8.90;99.90;;;;;;4988321;28;20085;-66
2022/02/09 08:09:09;;;;;;;6.40;2.20;;;8.90;99.90;;;;;;4994091;28;20117;-66
2022/02/09 08:11:49;;;;;;;3.85;1.60;;;9.00;99.90;;;;;;4990895;28;20018;-66
2022/02/09 08:33:17;;;;;;;4.75;1.70;;;9.20;99.90;;;;;;4986488;28;20510;-66
2022/02/09 08:35:47;;;;;;;5.47;1.65;;;9.10;99.90;;;;;;4987980;28;20033;-67
2022/02/09 08:38:13;;;;;;;5.35;2.13;;;9.10;99.90;;;;;;4986365;28;20030;-66
2022/02/09 08:40:41;;;;;;;6.25;1.83;;;9.10;99.90;;;;;;4985327;28;20041;-66
2022/02/09 08:43:09;;;;;;;6.20;2.47;;;9.10;99.90;;;;;;4992787;28;20528;-66
2022/02/09 08:45:35;;;;;;;3.75;1.63;;;9.00;99.90;;;;;;5007610;28;20436;-66
2022/02/09 08:48:00;;;;;;;8.40;2.28;;;9.00;99.90;;;;;;4991911;28;20033;-66
2022/02/09 08:50:26;;;;;;;6.40;2.08;;;9.00;99.90;;;;;;4987673;28;20395;-67
2022/02/09 08:52:53;;;;;;;4.78;2.17;;;9.00;99.90;;;;;;4991484;28;20710;-66
2022/02/09 08:55:19;;;;;;;2.80;1.65;;;9.00;99.90;;;;;;4985352;28;20537;-66
2022/02/09 08:57:45;;;;;;;4.90;1.90;;;9.10;99.90;;;;;;4987539;28;20054;-66
2022/02/09 09:00:19;;;;;;;10.45;2.85;;;9.10;99.90;;;;;;4988624;28;20031;-66
2022/02/09 09:02:50;;;;;;;8.13;2.50;;;9.10;99.90;;;;;;4987714;28;20466;-66
2022/02/09 09:05:22;;;;;;;8.40;1.90;;;9.10;99.90;;;;;;4990467;28;20022;-66
2022/02/09 09:07:53;;;;;;;6.15;2.28;;;9.00;99.90;;;;;;5006934;28;20053;-66
2022/02/09 09:10:36;;;;;;;5.93;1.92;;;9.10;99.90;;;;;;5006099;28;20682;-66
2022/02/09 09:18:46;;;;;;;6.05;2.28;;;9.50;99.90;;;;;;4986407;28;20042;-67
2022/02/09 09:58:03;;;;;;;3.72;2.08;;;10.00;99.90;;;;;;4989001;28;20069;-67
2022/02/09 10:00:18;;;;;;;5.70;1.88;;;10.20;99.90;;;;;;4991309;28;20045;-67
2022/02/09 10:31:25;;;;;;;3.78;1.60;;;10.60;99.90;;;;;;4990168;28;20729;-67
2022/02/09 10:34:05;;;;;;;1.98;0.95;;;10.60;99.90;;;;;;4997318;28;20073;-67
2022/02/09 10:36:52;;;;;;;2.65;0.98;;;10.60;99.90;;;;;;4988547;28;20390;-67
2022/02/09 10:39:31;;;;;;;2.70;1.23;;;10.70;99.90;;;;;;4998714;28;20447;-67
2022/02/09 10:42:09;;;;;;;2.00;0.98;;;10.80;99.90;;;;;;4989535;28;20053;-68
2022/02/09 10:45:03;;;;;;;4.13;1.05;;;10.60;99.90;;;;;;4995082;28;20455;-67
2022/02/09 10:47:31;;;;;;;2.75;1.25;;;10.60;99.90;;;;;;4992262;28;20022;-67
2022/02/09 10:50:10;;;;;;;2.03;1.00;;;10.60;99.90;;;;;;4994925;28;20026;-67
2022/02/09 10:52:42;;;;;;;0.65;0.63;;;10.80;99.90;;;;;;4991901;28;20586;-67
2022/02/09 10:55:26;;;;;;;0.80;0.60;;;10.80;99.90;;;;;;4991452;28;20022;-67
2022/02/09 10:57:53;;;;;;;4.38;1.20;;;10.70;99.90;;;;;;4993733;28;20030;-67
2022/02/09 11:00:20;;;;;;;3.03;0.93;;;10.70;99.90;;;;;;5007067;28;20599;-67
2022/02/09 11:02:46;;;;;;;2.92;0.90;;;10.80;99.90;;;;;;4990891;28;20034;-67
2022/02/09 11:05:12;;;;;;;3.40;1.23;;;10.90;99.90;;;;;;4991807;28;20556;-68
2022/02/09 11:07:38;;;;;;;1.88;0.88;;;11.00;99.90;;;;;;4992837;28;20033;-67
2022/02/09 11:10:05;;;;;;;3.45;1.30;;;11.30;99.90;;;;;;4989022;28;20022;-67
2022/02/09 11:12:31;;;;;;;2.00;0.90;;;11.20;99.90;;;;;;5004168;28;20030;-67
2022/02/09 11:14:56;;;;;;;3.65;1.40;;;11.00;99.90;;;;;;4992345;28;20429;-67
2022/02/09 11:17:23;;;;;;;5.90;1.65;;;10.90;99.90;;;;;;4994612;28;20105;-67
2022/02/09 11:19:51;;;;;;;1.75;1.00;;;11.10;99.90;;;;;;4992864;28;20033;-67
2022/02/09 11:22:23;;;;;;;2.78;1.23;;;11.00;99.90;;;;;;4990829;28;20138;-67
2022/02/09 11:25:07;;;;;;;2.80;1.10;;;11.20;99.90;;;;;;4989115;28;20022;-67
2022/02/09 11:27:36;;;;;;;2.53;1.15;;;11.00;99.90;;;;;;4989296;28;20093;-67
2022/02/09 11:30:44;;;;;;;1.48;0.88;;;11.30;99.90;;;;;;5008053;28;20094;-67
2022/02/09 11:33:12;;;;;;;;;;;11.40;99.90;;;;;;4982241;28;20074;-67
2022/02/09 11:36:27;;;;;;;2.20;0.90;;;11.60;99.90;;;;;;5004550;28;19910;-67
2022/02/09 11:38:58;;;;;;;2.25;1.05;;;11.50;99.90;;;;;;4989382;28;20037;-67
2022/02/09 11:41:35;;;;;;;1.52;0.80;;;11.40;99.90;;;;;;4990155;28;20030;-67
2022/02/09 11:44:21;;;;;;;4.68;1.67;;;11.20;99.90;;;;;;4991625;28;20138;-67
2022/02/09 12:00:52;;;;;;;3.08;1.23;;;10.90;99.90;;;;;;4988572;28;20027;-67
2022/02/09 12:11:33;;;;;;;6.07;1.95;;;10.90;99.90;;;;;;4983766;28;20103;-67
2022/02/09 12:18:59;;;;;;;0.73;0.63;;;10.40;99.90;;;;;;4989988;28;20539;-68
2022/02/09 12:21:39;;;;;;;4.68;1.27;;;10.40;99.90;;;;;;4986819;28;20045;-67
2022/02/09 12:24:17;;;;;;;3.00;1.17;;;10.20;99.90;;;;;;5001278;28;20065;-67
2022/02/09 12:26:56;;;;;;;3.78;1.55;;;10.10;99.90;;;;;;4980012;28;20676;-67
2022/02/09 12:29:22;;;;;;;2.65;1.20;;;10.10;99.90;;;;;;4990785;28;20081;-68
2022/02/09 12:31:48;;;;;;;3.95;1.45;;;10.10;99.90;;;;;;4990557;28;20104;-68
2022/02/09 12:34:24;;;;;;;4.32;1.00;;;10.10;99.90;;;;;;4990419;28;20026;-68
2022/02/09 12:36:54;;;;;;;3.70;1.63;;;10.20;99.90;;;;;;4989166;28;20069;-68
2022/02/09 12:39:21;;;;;;;1.58;1.05;;;10.00;99.90;;;;;;4987205;28;20037;-67
2022/02/09 12:41:48;;;;;;;3.65;1.00;;;10.00;99.90;;;;;;4994353;28;20033;-67
2022/02/09 12:44:23;;;;;;;3.92;1.77;;;10.00;99.90;;;;;;4989528;28;20030;-67
2022/02/09 12:46:49;;;;;;;3.40;1.40;;;10.10;99.90;;;;;;5009921;28;20080;-67
2022/02/09 12:49:17;;;;;;;3.58;1.30;;;10.10;99.90;;;;;;5002386;28;20026;-67
2022/02/09 12:51:46;;;;;;;3.47;1.52;;;10.10;99.90;;;;;;4988654;28;20038;-68
2022/02/09 12:54:14;;;;;;;4.47;1.52;;;10.20;99.90;;;;;;4993008;28;20061;-68
2022/02/09 12:56:52;;;;;;;4.97;1.55;;;10.30;99.90;;;;;;4991580;28;20034;-68
2022/02/09 12:59:20;;;;;;;3.13;1.45;;;10.20;99.90;;;;;;4997489;28;20117;-68
2022/02/09 13:01:54;;;;;;;5.10;1.90;;;10.10;99.90;;;;;;4996461;28;20134;-67
2022/02/09 13:04:41;;;;;;;3.58;1.33;;;10.00;99.90;;;;;;4987066;28;20037;-68
2022/02/09 13:07:18;;;;;;;5.45;1.38;;;10.00;99.90;;;;;;4983343;28;20096;-67
2022/02/09 13:09:53;;;;;;;2.90;1.30;;;10.00;99.90;;;;;;4987096;28;20027;-67
2022/02/09 13:12:26;;;;;;;5.55;1.17;;;9.90;99.90;;;;;;4985886;28;20101;-67
2022/02/09 13:14:53;;;;;;;4.10;2.47;;;9.90;99.90;;;;;;4983936;28;20039;-67
2022/02/09 13:23:11;;;;;;;3.47;1.45;;;9.80;99.90;;;;;;4986041;28;20105;-67
2022/02/09 14:53:23;;;;;;;4.30;1.88;;;10.20;99.90;;;;;;4988265;28;20037;-69
2022/02/09 14:55:57;;;;;;;4.97;1.92;;;10.20;99.90;;;;;;4987319;28;20030;-67
2022/02/09 14:58:25;;;;;;;3.20;1.33;;;10.10;99.90;;;;;;4980991;28;20065;-68
2022/02/09 15:01:06;;;;;;;3.85;1.40;;;10.20;99.90;;;;;;4986199;28;20242;-66
2022/02/09 15:08:49;;;;;;;4.72;1.70;;;10.20;99.90;;;;;;4987777;28;20713;-66
2022/02/09 15:24:11;;;;;;;3.47;1.20;;;10.20;99.90;;;;;;4990196;28;20034;-66
2022/02/09 15:26:37;;;;;;;3.03;1.27;;;10.20;99.90;;;;;;4986900;28;20057;-66
2022/02/09 15:29:03;;;;;;;2.13;0.98;;;10.20;99.90;;;;;;4987746;28;20086;-66
2022/02/09 15:31:40;;;;;;;2.72;1.38;;;10.20;99.90;;;;;;5002976;28;20084;-66
2022/02/09 15:34:22;;;;;;;3.05;0.95;;;10.20;99.90;;;;;;5005919;28;20387;-66
2022/02/09 15:36:58;;;;;;;4.07;1.13;;;10.20;99.90;;;;;;4983973;28;20109;-66
2022/02/09 15:39:25;;;;;;;3.38;1.15;;;10.10;99.90;;;;;;4987434;28;20026;-66
2022/02/09 15:42:06;;;;;;;2.20;0.95;;;10.00;99.90;;;;;;4982503;28;20035;-69
2022/02/09 15:58:46;;;;;;;8.35;1.42;;;10.10;99.90;;;;;;4986802;28;20037;-67
2022/02/09 16:46:16;;;;;;;3.47;1.20;;;9.90;99.90;;;;;;4988031;28;20033;-68
2022/02/09 16:49:08;;;;;;;5.22;1.38;;;9.90;99.90;;;;;;4978688;28;20125;-68
2022/02/09 16:51:32;;;;;;;3.13;1.33;;;10.00;99.90;;;;;;4981778;28;20454;-68
2022/02/09 16:54:12;;;;;;;2.90;1.30;;;9.80;99.90;;;;;;4986881;28;20031;-68
2022/02/09 17:20:48;;;;;;;3.53;1.80;;;9.90;99.90;;;;;;4987343;28;20450;-68
2022/02/09 17:23:13;;;;;;;2.30;0.82;;;9.80;99.90;;;;;;4989326;28;20026;-68
2022/02/09 17:25:39;;;;;;;1.52;0.90;;;9.80;99.90;;;;;;4988584;28;20038;-67
2022/02/09 17:28:09;;;;;;;5.22;1.30;;;9.70;99.90;;;;;;4989751;28;20046;-68
2022/02/09 17:33:10;;;;;;;2.15;1.00;;;9.80;99.90;;;;;;4992888;28;20519;-68
2022/02/09 17:36:36;;;;;;;2.03;1.10;;;9.80;99.90;;;;;;4985501;28;20394;-68
2022/02/09 17:38:34;;;;;;;3.33;1.20;;;9.80;99.90;;;;;;4988049;28;20109;-68
2022/02/09 17:57:07;;;;;;;3.20;1.10;;;9.80;99.90;;;;;;4986994;28;20026;-68
2022/02/09 17:59:36;;;;;;;3.15;1.17;;;9.70;99.90;;;;;;4997284;28;20466;-68
2022/02/09 18:02:02;;;;;;;3.25;1.40;;;9.70;99.90;;;;;;4991980;28;20033;-68
2022/02/09 18:04:29;;;;;;;3.00;1.23;;;9.70;99.90;;;;;;4994045;28;20185;-68
2022/02/09 18:07:00;;;;;;;2.90;1.05;;;9.70;99.90;;;;;;4991192;28;20069;-68
2022/02/09 18:09:36;;;;;;;4.30;1.38;;;9.70;99.90;;;;;;4995059;28;20526;-68
2022/02/09 18:12:14;;;;;;;4.80;1.15;;;9.70;99.90;;;;;;4992164;28;20088;-68
2022/02/09 18:30:56;;;;;;;8.02;1.83;;;9.70;99.90;;;;;;4985426;28;20043;-68
2022/02/09 18:56:56;;;;;;;5.80;1.65;;;9.70;99.90;;;;;;4997609;28;20047;-67
2022/02/09 19:00:36;;;;;;;7.68;2.30;;;9.70;99.90;;;;;;4996110;28;20034;-67
2022/02/09 19:03:07;;;;;;;4.97;1.80;;;9.70;99.90;;;;;;4996796;28;20453;-67
2022/02/09 19:05:39;;;;;;;3.13;1.48;;;9.70;99.90;;;;;;4994325;28;20030;-67
2022/02/09 19:18:38;;;;;;;4.78;1.42;;;9.60;99.90;;;;;;4990226;28;20026;-67
2022/02/09 19:27:01;;;;;;;3.88;1.23;;;9.70;99.90;;;;;;4990662;28;20068;-70
2022/02/09 19:48:19;;;;;;;8.07;2.60;;;9.00;99.90;;;;;;4991391;28;20109;-66
2022/02/09 19:52:00;;;;;;;8.90;3.30;;;8.90;99.90;;;;;;4988916;28;20354;-67
2022/02/09 19:54:06;;;;;;;3.90;1.50;;;8.90;99.90;;;;;;4997693;28;20750;-67
2022/02/09 19:56:33;;;;;;;4.65;1.67;;;9.00;99.90;;;;;;4971583;28;20052;-67
2022/02/09 19:59:03;;;;;;;4.05;1.58;;;9.10;99.90;;;;;;4990378;28;20512;-67
2022/02/09 20:01:36;;;;;;;4.38;2.00;;;9.00;99.90;;;;;;4999411;28;20393;-67
2022/02/09 20:04:08;;;;;;;5.60;1.75;;;9.10;99.90;;;;;;4991323;28;20088;-67
2022/02/09 20:06:35;;;;;;;4.50;1.85;;;9.00;99.90;;;;;;4989485;28;20042;-67
2022/02/09 20:09:01;;;;;;;5.47;1.92;;;9.10;99.90;;;;;;4994895;28;20402;-67
2022/02/09 20:11:26;;;;;;;6.80;2.58;;;9.20;99.90;;;;;;4993244;28;20026;-67
2022/02/09 20:13:53;;;;;;;11.90;2.08;;;9.30;99.90;;;;;;4989734;28;20167;-69
2022/02/09 20:16:20;;;;;;;4.53;2.10;;;9.40;99.90;;;;;;4991774;28;20042;-67
2022/02/09 20:18:53;;;;;;;5.20;1.88;;;9.40;99.90;;;;;;4990069;28;20602;-68
2022/02/09 20:21:22;;;;;;;5.68;2.50;;;9.40;99.90;;;;;;4997226;28;20034;-68
2022/02/09 20:23:50;;;;;;;4.13;2.05;;;9.30;99.90;;;;;;4992844;28;20030;-69
2022/02/09 20:26:16;;;;;;;6.00;2.05;;;9.30;99.90;;;;;;4988850;28;20030;-69
2022/02/09 20:28:53;;;;;;;7.22;2.70;;;9.30;99.90;;;;;;4980725;28;20039;-67
2022/02/09 20:31:24;;;;;;;3.83;1.65;;;9.30;99.90;;;;;;4986326;28;20018;-69
2022/02/09 20:33:55;;;;;;;3.88;1.70;;;9.30;99.90;;;;;;4993508;28;20041;-67
2022/02/09 20:36:21;;;;;;;7.22;2.20;;;9.20;99.90;;;;;;4993144;28;20022;-68
2022/02/09 20:38:52;;;;;;;4.97;1.73;;;9.20;99.90;;;;;;4994942;28;20041;-67
2022/02/09 20:41:19;;;;;;;5.53;2.40;;;9.20;99.90;;;;;;4990708;28;20036;-67
2022/02/09 20:43:59;;;;;;;12.90;3.15;;;9.20;99.90;;;;;;4985102;28;20033;-67
2022/02/09 20:46:29;;;;;;;4.60;1.90;;;9.20;99.90;;;;;;4991110;28;20030;-67
2022/02/09 20:48:55;;;;;;;5.10;1.70;;;9.10;99.90;;;;;;4985401;28;20022;-67
2022/02/09 20:51:22;;;;;;;5.70;2.22;;;9.10;99.90;;;;;;4996327;28;20041;-67
2022/02/09 20:53:47;;;;;;;8.68;2.53;;;9.10;99.90;;;;;;5007498;28;20034;-67
2022/02/09 20:56:13;;;;;;;7.60;2.83;;;9.10;99.90;;;;;;4986312;28;20117;-68
2022/02/09 20:58:42;;;;;;;6.38;2.30;;;9.10;99.90;;;;;;4990873;28;20035;-67
2022/02/09 21:01:13;;;;;;;6.47;2.42;;;9.10;99.90;;;;;;4991909;28;20105;-67
2022/02/09 21:03:43;;;;;;;4.57;2.03;;;9.00;99.90;;;;;;4993809;28;20034;-67
2022/02/09 21:09:25;;;;;;;4.57;1.83;;;9.00;99.90;;;;;;4999857;28;20053;-67
2022/02/09 21:17:16;;;;;;;6.88;2.75;;;9.00;99.90;;;;;;5003159;28;20128;-67
2022/02/09 21:20:02;;;;;;;6.10;2.20;;;9.00;99.90;;;;;;5000522;28;20054;-67
2022/02/09 21:52:50;;;;;;;6.55;2.25;;;8.90;99.90;;;;;;4992474;28;20078;-68
2022/02/09 21:58:00;;;;;;;6.15;2.65;;;8.90;99.90;;;;;;4988588;28;20145;-67
2022/02/09 22:27:27;;;;;;;10.30;3.42;;;8.80;99.90;;;;;;4993639;28;20502;-67
2022/02/09 22:49:16;;;;;;;8.68;2.90;;;8.70;99.90;;;;;;4990501;28;20037;-67
2022/02/09 22:54:37;;;;;;;6.35;2.47;;;8.70;99.90;;;;;;4989890;28;20045;-67
2022/02/09 22:57:03;;;;;;;7.57;3.08;;;8.60;99.90;;;;;;4984823;28;20034;-67
2022/02/09 22:59:58;;;;;;;9.02;3.00;;;8.70;99.90;;;;;;4997943;28;20104;-67
2022/02/09 23:02:26;;;;;;;17.20;3.28;;;8.60;99.90;;;;;;4988766;28;20041;-67
2022/02/09 23:05:18;;;;;;;9.27;3.45;;;8.70;99.90;;;;;;4985452;28;20045;-68
2022/02/09 23:07:47;;;;;;;5.95;3.22;;;8.60;99.90;;;;;;4989849;28;20050;-67
2022/02/09 23:10:23;;;;;;;7.53;3.22;;;8.60;99.90;;;;;;4989152;28;20059;-67
2022/02/09 23:12:57;;;;;;;11.68;3.28;;;8.60;99.90;;;;;;4992610;28;20514;-67
2022/02/09 23:18:21;;;;;;;6.80;2.60;;;8.50;99.90;;;;;;4996433;28;20439;-67
